sensor_id;sensor_type;location;lat;lon;timestamp;P1;P2;P0
68713;PMS7003;55690;51.566;19.198;2023-08-24T00:03:16;3;3;3
68713;PMS7003;55690;51.566;19.198;2023-08-24T00:07:22;8;6;4
68713;PMS7003;55690;51.566;19.198;2023-08-24T00:11:28;5;4;4
68713;PMS7003;55690;51.566;19.198;2023-08-24T00:15:35;9;5;4
68713;PMS7003;55690;51.566;19.198;2023-08-24T00:19:41;7;3;3
68713;PMS7003;55690;51.566;19.198;2023-08-24T00:23:47;4;4;4
68713;PMS7003;55690;51.566;19.198;2023-08-24T00:27:53;3;3;3
68713;PMS7003;55690;51.566;19.198;2023-08-24T00:31:59;8;5;5
68713;PMS7003;55690;51.566;19.198;2023-08-24T00:36:06;1;1;1
68713;PMS7003;55690;51.566;19.198;2023-08-24T00:40:12;5;5;5
68713;PMS7003;55690;51.566;19.198;2023-08-24T00:44:18;6;6;6
68713;PMS7003;55690;51.566;19.198;2023-08-24T00:48:24;6;4;4
68713;PMS7003;55690;51.566;19.198;2023-08-24T00:52:31;5;5;4
68713;PMS7003;55690;51.566;19.198;2023-08-24T00:56:36;5;5;4
68713;PMS7003;55690;51.566;19.198;2023-08-24T01:00:42;6;6;4
68713;PMS7003;55690;51.566;19.198;2023-08-24T01:04:49;5;5;4
68713;PMS7003;55690;51.566;19.198;2023-08-24T01:08:55;12;5;5
68713;PMS7003;55690;51.566;19.198;2023-08-24T01:17:14;10;6;6
68713;PMS7003;55690;51.566;19.198;2023-08-24T01:21:19;7;4;4
68713;PMS7003;55690;51.566;19.198;2023-08-24T01:29:35;7;6;5
68713;PMS7003;55690;51.566;19.198;2023-08-24T01:33:41;7;7;5
68713;PMS7003;55690;51.566;19.198;2023-08-24T01:37:42;4;4;3
68713;PMS7003;55690;51.566;19.198;2023-08-24T01:41:44;10;9;7
68713;PMS7003;55690;51.566;19.198;2023-08-24T01:45:50;7;7;6
68713;PMS7003;55690;51.566;19.198;2023-08-24T01:49:56;8;4;4
68713;PMS7003;55690;51.566;19.198;2023-08-24T01:54:03;6;6;5
68713;PMS7003;55690;51.566;19.198;2023-08-24T01:58:09;6;6;5
68713;PMS7003;55690;51.566;19.198;2023-08-24T02:02:16;4;4;4
68713;PMS7003;55690;51.566;19.198;2023-08-24T02:06:21;1;1;1
68713;PMS7003;55690;51.566;19.198;2023-08-24T02:10:27;6;5;4
68713;PMS7003;55690;51.566;19.198;2023-08-24T02:14:33;6;5;4
68713;PMS7003;55690;51.566;19.198;2023-08-24T02:18:40;8;8;7
68713;PMS7003;55690;51.566;19.198;2023-08-24T02:22:46;7;7;6
68713;PMS7003;55690;51.566;19.198;2023-08-24T02:26:52;6;6;5
68713;PMS7003;55690;51.566;19.198;2023-08-24T02:31:02;8;8;7
68713;PMS7003;55690;51.566;19.198;2023-08-24T02:35:05;9;3;3
68713;PMS7003;55690;51.566;19.198;2023-08-24T02:39:10;14;5;4
68713;PMS7003;55690;51.566;19.198;2023-08-24T02:43:17;6;5;5
68713;PMS7003;55690;51.566;19.198;2023-08-24T02:47:23;6;6;4
68713;PMS7003;55690;51.566;19.198;2023-08-24T02:51:29;7;5;5
68713;PMS7003;55690;51.566;19.198;2023-08-24T02:55:35;11;6;5
68713;PMS7003;55690;51.566;19.198;2023-08-24T02:59:41;5;5;4
68713;PMS7003;55690;51.566;19.198;2023-08-24T03:03:47;5;3;2
68713;PMS7003;55690;51.566;19.198;2023-08-24T03:07:54;5;4;4
68713;PMS7003;55690;51.566;19.198;2023-08-24T03:12:01;8;7;7
68713;PMS7003;55690;51.566;19.198;2023-08-24T03:16:06;5;5;4
68713;PMS7003;55690;51.566;19.198;2023-08-24T03:20:12;5;5;5
68713;PMS7003;55690;51.566;19.198;2023-08-24T03:24:18;15;6;5
68713;PMS7003;55690;51.566;19.198;2023-08-24T03:28:24;7;7;7
68713;PMS7003;55690;51.566;19.198;2023-08-24T03:32:31;7;5;4
68713;PMS7003;55690;51.566;19.198;2023-08-24T03:36:37;8;7;6
68713;PMS7003;55690;51.566;19.198;2023-08-24T03:40:43;12;5;4
68713;PMS7003;55690;51.566;19.198;2023-08-24T03:44:49;4;4;3
68713;PMS7003;55690;51.566;19.198;2023-08-24T03:48:55;7;7;7
68713;PMS7003;55690;51.566;19.198;2023-08-24T03:53:02;9;9;7
68713;PMS7003;55690;51.566;19.198;2023-08-24T03:57:08;9;5;5
68713;PMS7003;55690;51.566;19.198;2023-08-24T04:01:14;3;3;3
68713;PMS7003;55690;51.566;19.198;2023-08-24T04:05:20;8;5;4
68713;PMS7003;55690;51.566;19.198;2023-08-24T04:09:26;6;6;6
68713;PMS7003;55690;51.566;19.198;2023-08-24T04:13:32;7;7;7
68713;PMS7003;55690;51.566;19.198;2023-08-24T04:17:38;11;11;9
68713;PMS7003;55690;51.566;19.198;2023-08-24T04:21:45;3;2;1
68713;PMS7003;55690;51.566;19.198;2023-08-24T04:25:51;8;8;7
68713;PMS7003;55690;51.566;19.198;2023-08-24T04:29:57;4;4;3
68713;PMS7003;55690;51.566;19.198;2023-08-24T04:34:03;5;5;4
68713;PMS7003;55690;51.566;19.198;2023-08-24T04:38:09;4;4;4
68713;PMS7003;55690;51.566;19.198;2023-08-24T04:42:16;9;9;7
68713;PMS7003;55690;51.566;19.198;2023-08-24T04:46:22;7;7;6
68713;PMS7003;55690;51.566;19.198;2023-08-24T04:50:28;7;7;6
68713;PMS7003;55690;51.566;19.198;2023-08-24T04:54:34;7;7;6
68713;PMS7003;55690;51.566;19.198;2023-08-24T04:58:40;17;7;6
68713;PMS7003;55690;51.566;19.198;2023-08-24T05:02:46;6;6;5
68713;PMS7003;55690;51.566;19.198;2023-08-24T05:06:52;5;5;4
68713;PMS7003;55690;51.566;19.198;2023-08-24T05:10:59;5;5;4
68713;PMS7003;55690;51.566;19.198;2023-08-24T05:15:05;8;8;7
68713;PMS7003;55690;51.566;19.198;2023-08-24T05:19:11;12;7;7
68713;PMS7003;55690;51.566;19.198;2023-08-24T05:23:17;8;6;6
68713;PMS7003;55690;51.566;19.198;2023-08-24T05:27:23;11;10;8
68713;PMS7003;55690;51.566;19.198;2023-08-24T05:31:29;5;5;4
68713;PMS7003;55690;51.566;19.198;2023-08-24T05:35:36;12;8;7
68713;PMS7003;55690;51.566;19.198;2023-08-24T05:39:42;16;9;6
68713;PMS7003;55690;51.566;19.198;2023-08-24T05:43:48;7;7;6
68713;PMS7003;55690;51.566;19.198;2023-08-24T05:47:54;8;7;5
68713;PMS7003;55690;51.566;19.198;2023-08-24T05:52:00;8;8;7
68713;PMS7003;55690;51.566;19.198;2023-08-24T05:56:07;8;8;7
68713;PMS7003;55690;51.566;19.198;2023-08-24T06:00:13;6;6;5
68713;PMS7003;55690;51.566;19.198;2023-08-24T06:04:19;5;5;5
68713;PMS7003;55690;51.566;19.198;2023-08-24T06:08:25;6;6;6
68713;PMS7003;55690;51.566;19.198;2023-08-24T06:12:31;7;7;6
68713;PMS7003;55690;51.566;19.198;2023-08-24T06:16:37;11;8;7
68713;PMS7003;55690;51.566;19.198;2023-08-24T06:20:44;12;5;5
68713;PMS7003;55690;51.566;19.198;2023-08-24T06:24:50;3;3;3
68713;PMS7003;55690;51.566;19.198;2023-08-24T06:28:56;3;3;3
68713;PMS7003;55690;51.566;19.198;2023-08-24T06:33:03;4;4;3
68713;PMS7003;55690;51.566;19.198;2023-08-24T06:37:08;17;7;6
68713;PMS7003;55690;51.566;19.198;2023-08-24T06:41:15;13;9;8
68713;PMS7003;55690;51.566;19.198;2023-08-24T06:45:21;4;4;4
68713;PMS7003;55690;51.566;19.198;2023-08-24T06:49:27;2;2;2
68713;PMS7003;55690;51.566;19.198;2023-08-24T06:53:33;5;5;4
68713;PMS7003;55690;51.566;19.198;2023-08-24T06:57:39;3;3;3
68713;PMS7003;55690;51.566;19.198;2023-08-24T07:01:45;4;4;3
68713;PMS7003;55690;51.566;19.198;2023-08-24T07:05:52;4;3;3
68713;PMS7003;55690;51.566;19.198;2023-08-24T07:09:58;5;5;5
68713;PMS7003;55690;51.566;19.198;2023-08-24T07:14:04;6;6;5
68713;PMS7003;55690;51.566;19.198;2023-08-24T07:18:10;7;7;5
68713;PMS7003;55690;51.566;19.198;2023-08-24T07:22:16;5;4;4
68713;PMS7003;55690;51.566;19.198;2023-08-24T07:26:22;6;6;5
68713;PMS7003;55690;51.566;19.198;2023-08-24T07:30:28;3;3;3
68713;PMS7003;55690;51.566;19.198;2023-08-24T07:34:35;5;5;4
68713;PMS7003;55690;51.566;19.198;2023-08-24T07:38:41;3;3;3
68713;PMS7003;55690;51.566;19.198;2023-08-24T07:42:48;3;3;3
68713;PMS7003;55690;51.566;19.198;2023-08-24T07:46:57;6;4;3
68713;PMS7003;55690;51.566;19.198;2023-08-24T07:50:59;5;5;5
68713;PMS7003;55690;51.566;19.198;2023-08-24T07:55:06;7;4;4
68713;PMS7003;55690;51.566;19.198;2023-08-24T07:59:11;4;4;4
68713;PMS7003;55690;51.566;19.198;2023-08-24T08:03:21;5;5;4
68713;PMS7003;55690;51.566;19.198;2023-08-24T08:07:24;5;5;5
68713;PMS7003;55690;51.566;19.198;2023-08-24T08:11:30;9;7;6
68713;PMS7003;55690;51.566;19.198;2023-08-24T08:15:36;7;7;6
68713;PMS7003;55690;51.566;19.198;2023-08-24T08:19:42;4;4;4
68713;PMS7003;55690;51.566;19.198;2023-08-24T08:23:48;7;7;5
68713;PMS7003;55690;51.566;19.198;2023-08-24T08:27:55;3;3;3
68713;PMS7003;55690;51.566;19.198;2023-08-24T08:32:01;9;5;5
68713;PMS7003;55690;51.566;19.198;2023-08-24T08:36:07;3;3;3
68713;PMS7003;55690;51.566;19.198;2023-08-24T08:40:13;4;4;4
68713;PMS7003;55690;51.566;19.198;2023-08-24T08:44:20;10;10;10
68713;PMS7003;55690;51.566;19.198;2023-08-24T08:48:25;7;7;5
68713;PMS7003;55690;51.566;19.198;2023-08-24T08:52:31;4;4;4
68713;PMS7003;55690;51.566;19.198;2023-08-24T08:56:38;4;4;4
68713;PMS7003;55690;51.566;19.198;2023-08-24T09:00:44;14;4;3
68713;PMS7003;55690;51.566;19.198;2023-08-24T09:04:50;4;4;3
68713;PMS7003;55690;51.566;19.198;2023-08-24T09:08:56;5;5;5
68713;PMS7003;55690;51.566;19.198;2023-08-24T09:13:02;3;3;3
68713;PMS7003;55690;51.566;19.198;2023-08-24T09:17:08;6;6;5
68713;PMS7003;55690;51.566;19.198;2023-08-24T09:21:15;8;5;4
68713;PMS7003;55690;51.566;19.198;2023-08-24T09:25:21;5;5;4
68713;PMS7003;55690;51.566;19.198;2023-08-24T09:29:27;3;3;3
68713;PMS7003;55690;51.566;19.198;2023-08-24T09:33:33;7;7;6
68713;PMS7003;55690;51.566;19.198;2023-08-24T09:37:39;3;3;3
68713;PMS7003;55690;51.566;19.198;2023-08-24T09:41:49;7;4;4
68713;PMS7003;55690;51.566;19.198;2023-08-24T09:45:52;4;4;4
68713;PMS7003;55690;51.566;19.198;2023-08-24T09:49:59;5;4;4
68713;PMS7003;55690;51.566;19.198;2023-08-24T09:54:05;6;5;5
68713;PMS7003;55690;51.566;19.198;2023-08-24T09:58:10;1;1;1
68713;PMS7003;55690;51.566;19.198;2023-08-24T10:02:18;5;5;4
68713;PMS7003;55690;51.566;19.198;2023-08-24T10:06:24;5;5;5
68713;PMS7003;55690;51.566;19.198;2023-08-24T10:10:30;3;3;3
68713;PMS7003;55690;51.566;19.198;2023-08-24T10:18:47;5;5;5
68713;PMS7003;55690;51.566;19.198;2023-08-24T10:22:52;3;3;3
68713;PMS7003;55690;51.566;19.198;2023-08-24T10:26:55;4;4;3
68713;PMS7003;55690;51.566;19.198;2023-08-24T10:31:00;4;4;3
68713;PMS7003;55690;51.566;19.198;2023-08-24T10:35:07;5;5;5
68713;PMS7003;55690;51.566;19.198;2023-08-24T10:39:12;7;7;6
68713;PMS7003;55690;51.566;19.198;2023-08-24T10:43:18;4;2;2
68713;PMS7003;55690;51.566;19.198;2023-08-24T10:47:24;7;5;5
68713;PMS7003;55690;51.566;19.198;2023-08-24T10:51:30;8;8;7
68713;PMS7003;55690;51.566;19.198;2023-08-24T10:55:36;5;5;4
68713;PMS7003;55690;51.566;19.198;2023-08-24T10:59:43;4;4;3
68713;PMS7003;55690;51.566;19.198;2023-08-24T11:03:49;4;4;4
68713;PMS7003;55690;51.566;19.198;2023-08-24T11:08:01;5;5;5
68713;PMS7003;55690;51.566;19.198;2023-08-24T11:12:04;13;8;7
68713;PMS7003;55690;51.566;19.198;2023-08-24T11:16:07;4;4;4
68713;PMS7003;55690;51.566;19.198;2023-08-24T11:20:18;7;6;5
68713;PMS7003;55690;51.566;19.198;2023-08-24T11:24:22;7;3;3
68713;PMS7003;55690;51.566;19.198;2023-08-24T11:28:29;7;7;7
68713;PMS7003;55690;51.566;19.198;2023-08-24T11:32:32;6;6;6
68713;PMS7003;55690;51.566;19.198;2023-08-24T11:40:48;5;5;5
68713;PMS7003;55690;51.566;19.198;2023-08-24T11:44:51;5;5;5
68713;PMS7003;55690;51.566;19.198;2023-08-24T11:48:57;4;4;4
68713;PMS7003;55690;51.566;19.198;2023-08-24T11:53:03;5;5;4
68713;PMS7003;55690;51.566;19.198;2023-08-24T11:57:09;6;4;4
68713;PMS7003;55690;51.566;19.198;2023-08-24T12:05:30;5;5;5
68713;PMS7003;55690;51.566;19.198;2023-08-24T12:09:31;7;7;7
68713;PMS7003;55690;51.566;19.198;2023-08-24T12:13:33;6;6;6
68713;PMS7003;55690;51.566;19.198;2023-08-24T12:17:43;5;5;5
68713;PMS7003;55690;51.566;19.198;2023-08-24T12:21:46;5;4;4
68713;PMS7003;55690;51.566;19.198;2023-08-24T12:25:53;5;5;5
68713;PMS7003;55690;51.566;19.198;2023-08-24T12:30:01;5;5;5
68713;PMS7003;55690;51.566;19.198;2023-08-24T12:34:05;4;4;3
68713;PMS7003;55690;51.566;19.198;2023-08-24T12:38:10;4;4;3
68713;PMS7003;55690;51.566;19.198;2023-08-24T12:42:16;6;6;6
68713;PMS7003;55690;51.566;19.198;2023-08-24T12:46:23;3;3;3
68713;PMS7003;55690;51.566;19.198;2023-08-24T12:50:29;4;4;4
68713;PMS7003;55690;51.566;19.198;2023-08-24T12:54:35;5;4;4
68713;PMS7003;55690;51.566;19.198;2023-08-24T12:58:41;8;8;7
68713;PMS7003;55690;51.566;19.198;2023-08-24T13:02:50;2;2;2
68713;PMS7003;55690;51.566;19.198;2023-08-24T13:06:53;8;8;7
68713;PMS7003;55690;51.566;19.198;2023-08-24T13:11:00;8;6;5
68713;PMS7003;55690;51.566;19.198;2023-08-24T13:15:06;8;8;8
68713;PMS7003;55690;51.566;19.198;2023-08-24T13:19:12;4;4;4
68713;PMS7003;55690;51.566;19.198;2023-08-24T13:23:18;8;5;5
68713;PMS7003;55690;51.566;19.198;2023-08-24T13:27:26;4;4;3
68713;PMS7003;55690;51.566;19.198;2023-08-24T13:31:30;4;4;4
68713;PMS7003;55690;51.566;19.198;2023-08-24T13:35:36;6;6;6
68713;PMS7003;55690;51.566;19.198;2023-08-24T13:39:46;6;6;5
68713;PMS7003;55690;51.566;19.198;2023-08-24T13:44:14;4;4;4
68713;PMS7003;55690;51.566;19.198;2023-08-24T13:48:20;4;4;4
68713;PMS7003;55690;51.566;19.198;2023-08-24T13:52:22;3;3;3
68713;PMS7003;55690;51.566;19.198;2023-08-24T13:56:25;6;3;3
68713;PMS7003;55690;51.566;19.198;2023-08-24T14:00:28;3;3;3
68713;PMS7003;55690;51.566;19.198;2023-08-24T14:04:32;4;4;4
68713;PMS7003;55690;51.566;19.198;2023-08-24T14:08:34;4;4;3
68713;PMS7003;55690;51.566;19.198;2023-08-24T14:12:35;4;4;3
68713;PMS7003;55690;51.566;19.198;2023-08-24T14:16:38;5;5;5
68713;PMS7003;55690;51.566;19.198;2023-08-24T14:20:44;3;3;3
68713;PMS7003;55690;51.566;19.198;2023-08-24T14:24:50;4;4;3
68713;PMS7003;55690;51.566;19.198;2023-08-24T14:28:57;4;4;4
68713;PMS7003;55690;51.566;19.198;2023-08-24T14:33:03;2;2;2
68713;PMS7003;55690;51.566;19.198;2023-08-24T14:37:09;5;2;2
68713;PMS7003;55690;51.566;19.198;2023-08-24T14:41:15;4;4;4
68713;PMS7003;55690;51.566;19.198;2023-08-24T14:45:21;4;4;2
68713;PMS7003;55690;51.566;19.198;2023-08-24T14:49:28;6;3;3
68713;PMS7003;55690;51.566;19.198;2023-08-24T14:53:33;5;2;2
68713;PMS7003;55690;51.566;19.198;2023-08-24T14:57:39;5;5;5
68713;PMS7003;55690;51.566;19.198;2023-08-24T15:01:46;2;2;2
68713;PMS7003;55690;51.566;19.198;2023-08-24T15:05:55;2;2;2
68713;PMS7003;55690;51.566;19.198;2023-08-24T15:10:08;5;5;5
68713;PMS7003;55690;51.566;19.198;2023-08-24T15:14:10;5;5;4
68713;PMS7003;55690;51.566;19.198;2023-08-24T15:18:12;3;3;3
68713;PMS7003;55690;51.566;19.198;2023-08-24T15:22:16;4;4;4
68713;PMS7003;55690;51.566;19.198;2023-08-24T15:26:23;3;3;2
68713;PMS7003;55690;51.566;19.198;2023-08-24T15:30:29;5;5;4
68713;PMS7003;55690;51.566;19.198;2023-08-24T15:34:35;3;3;3
68713;PMS7003;55690;51.566;19.198;2023-08-24T15:38:41;6;3;3
68713;PMS7003;55690;51.566;19.198;2023-08-24T15:42:47;8;8;7
68713;PMS7003;55690;51.566;19.198;2023-08-24T15:46:53;3;3;3
68713;PMS7003;55690;51.566;19.198;2023-08-24T15:51:00;7;2;2
68713;PMS7003;55690;51.566;19.198;2023-08-24T15:55:06;5;4;4
68713;PMS7003;55690;51.566;19.198;2023-08-24T15:59:12;4;4;4
68713;PMS7003;55690;51.566;19.198;2023-08-24T16:03:18;4;4;4
68713;PMS7003;55690;51.566;19.198;2023-08-24T16:07:24;6;6;5
68713;PMS7003;55690;51.566;19.198;2023-08-24T16:11:30;4;4;4
68713;PMS7003;55690;51.566;19.198;2023-08-24T16:15:36;3;3;3
68713;PMS7003;55690;51.566;19.198;2023-08-24T16:19:43;5;3;3
68713;PMS7003;55690;51.566;19.198;2023-08-24T16:23:49;4;4;4
68713;PMS7003;55690;51.566;19.198;2023-08-24T16:27:55;2;2;2
68713;PMS7003;55690;51.566;19.198;2023-08-24T16:32:01;11;4;3
68713;PMS7003;55690;51.566;19.198;2023-08-24T16:36:07;4;4;4
68713;PMS7003;55690;51.566;19.198;2023-08-24T16:40:13;7;6;4
68713;PMS7003;55690;51.566;19.198;2023-08-24T16:44:20;3;2;2
68713;PMS7003;55690;51.566;19.198;2023-08-24T16:48:26;6;6;5
68713;PMS7003;55690;51.566;19.198;2023-08-24T16:52:32;5;3;3
68713;PMS7003;55690;51.566;19.198;2023-08-24T16:56:39;3;3;3
68713;PMS7003;55690;51.566;19.198;2023-08-24T17:00:44;5;5;5
68713;PMS7003;55690;51.566;19.198;2023-08-24T17:04:50;5;5;5
68713;PMS7003;55690;51.566;19.198;2023-08-24T17:08:56;4;4;3
68713;PMS7003;55690;51.566;19.198;2023-08-24T17:13:03;6;4;4
68713;PMS7003;55690;51.566;19.198;2023-08-24T17:17:09;7;7;6
68713;PMS7003;55690;51.566;19.198;2023-08-24T17:21:15;3;3;2
68713;PMS7003;55690;51.566;19.198;2023-08-24T17:25:21;3;3;3
68713;PMS7003;55690;51.566;19.198;2023-08-24T17:29:27;3;3;3
68713;PMS7003;55690;51.566;19.198;2023-08-24T17:33:33;0;0;0
68713;PMS7003;55690;51.566;19.198;2023-08-24T17:37:40;5;3;3
68713;PMS7003;55690;51.566;19.198;2023-08-24T17:41:46;5;5;4
68713;PMS7003;55690;51.566;19.198;2023-08-24T17:45:52;4;4;4
68713;PMS7003;55690;51.566;19.198;2023-08-24T17:49:58;6;6;5
68713;PMS7003;55690;51.566;19.198;2023-08-24T17:54:05;7;4;4
68713;PMS7003;55690;51.566;19.198;2023-08-24T17:58:10;5;5;5
68713;PMS7003;55690;51.566;19.198;2023-08-24T18:02:17;4;4;4
68713;PMS7003;55690;51.566;19.198;2023-08-24T18:06:23;6;6;4
68713;PMS7003;55690;51.566;19.198;2023-08-24T18:10:29;7;6;6
68713;PMS7003;55690;51.566;19.198;2023-08-24T18:14:35;5;5;4
68713;PMS7003;55690;51.566;19.198;2023-08-24T18:18:41;5;4;4
68713;PMS7003;55690;51.566;19.198;2023-08-24T18:22:47;8;6;5
68713;PMS7003;55690;51.566;19.198;2023-08-24T18:26:54;5;5;5
68713;PMS7003;55690;51.566;19.198;2023-08-24T18:31:00;5;4;4
68713;PMS7003;55690;51.566;19.198;2023-08-24T18:35:06;12;6;6
68713;PMS7003;55690;51.566;19.198;2023-08-24T18:39:12;5;5;5
68713;PMS7003;55690;51.566;19.198;2023-08-24T18:43:18;6;6;5
68713;PMS7003;55690;51.566;19.198;2023-08-24T18:47:24;5;5;5
68713;PMS7003;55690;51.566;19.198;2023-08-24T18:51:30;10;9;8
68713;PMS7003;55690;51.566;19.198;2023-08-24T18:55:37;9;8;7
68713;PMS7003;55690;51.566;19.198;2023-08-24T18:59:43;5;5;5
68713;PMS7003;55690;51.566;19.198;2023-08-24T19:03:49;2;2;2
68713;PMS7003;55690;51.566;19.198;2023-08-24T19:07:55;8;8;6
68713;PMS7003;55690;51.566;19.198;2023-08-24T19:12:01;11;9;7
68713;PMS7003;55690;51.566;19.198;2023-08-24T19:16:07;9;9;9
68713;PMS7003;55690;51.566;19.198;2023-08-24T19:20:14;12;11;10
68713;PMS7003;55690;51.566;19.198;2023-08-24T19:24:20;10;10;8
68713;PMS7003;55690;51.566;19.198;2023-08-24T19:28:26;10;10;9
68713;PMS7003;55690;51.566;19.198;2023-08-24T19:32:32;18;10;7
68713;PMS7003;55690;51.566;19.198;2023-08-24T19:36:38;9;9;7
68713;PMS7003;55690;51.566;19.198;2023-08-24T19:40:44;5;5;5
68713;PMS7003;55690;51.566;19.198;2023-08-24T19:44:51;11;11;9
68713;PMS7003;55690;51.566;19.198;2023-08-24T19:48:57;9;9;8
68713;PMS7003;55690;51.566;19.198;2023-08-24T19:53:04;11;11;8
68713;PMS7003;55690;51.566;19.198;2023-08-24T19:57:10;15;11;9
68713;PMS7003;55690;51.566;19.198;2023-08-24T20:01:16;18;18;14
68713;PMS7003;55690;51.566;19.198;2023-08-24T20:05:22;23;13;12
68713;PMS7003;55690;51.566;19.198;2023-08-24T20:09:27;12;10;8
68713;PMS7003;55690;51.566;19.198;2023-08-24T20:13:34;28;17;13
68713;PMS7003;55690;51.566;19.198;2023-08-24T20:17:44;21;17;14
68713;PMS7003;55690;51.566;19.198;2023-08-24T20:21:46;21;17;14
68713;PMS7003;55690;51.566;19.198;2023-08-24T20:25:52;19;19;14
68713;PMS7003;55690;51.566;19.198;2023-08-24T20:29:58;25;23;17
68713;PMS7003;55690;51.566;19.198;2023-08-24T20:34:04;20;18;12
68713;PMS7003;55690;51.566;19.198;2023-08-24T20:38:11;25;19;14
68713;PMS7003;55690;51.566;19.198;2023-08-24T20:42:18;25;20;15
68713;PMS7003;55690;51.566;19.198;2023-08-24T20:46:24;29;22;17
68713;PMS7003;55690;51.566;19.198;2023-08-24T20:50:29;20;19;14
68713;PMS7003;55690;51.566;19.198;2023-08-24T20:54:38;37;25;17
68713;PMS7003;55690;51.566;19.198;2023-08-24T20:58:45;32;28;19
68713;PMS7003;55690;51.566;19.198;2023-08-24T21:02:51;29;17;15
68713;PMS7003;55690;51.566;19.198;2023-08-24T21:06:57;42;28;20
68713;PMS7003;55690;51.566;19.198;2023-08-24T21:11:03;30;27;19
68713;PMS7003;55690;51.566;19.198;2023-08-24T21:15:09;34;25;17
68713;PMS7003;55690;51.566;19.198;2023-08-24T21:19:15;52;34;24
68713;PMS7003;55690;51.566;19.198;2023-08-24T21:23:22;43;34;23
68713;PMS7003;55690;51.566;19.198;2023-08-24T21:27:28;43;28;20
68713;PMS7003;55690;51.566;19.198;2023-08-24T21:31:34;35;29;20
68713;PMS7003;55690;51.566;19.198;2023-08-24T21:35:40;32;25;18
68713;PMS7003;55690;51.566;19.198;2023-08-24T21:39:46;23;23;18
68713;PMS7003;55690;51.566;19.198;2023-08-24T21:43:52;24;21;17
68713;PMS7003;55690;51.566;19.198;2023-08-24T21:47:59;33;28;20
68713;PMS7003;55690;51.566;19.198;2023-08-24T21:52:05;21;21;16
68713;PMS7003;55690;51.566;19.198;2023-08-24T21:56:11;30;21;16
68713;PMS7003;55690;51.566;19.198;2023-08-24T22:00:18;28;23;15
68713;PMS7003;55690;51.566;19.198;2023-08-24T22:04:23;19;19;14
68713;PMS7003;55690;51.566;19.198;2023-08-24T22:08:29;29;26;18
68713;PMS7003;55690;51.566;19.198;2023-08-24T22:12:36;27;26;20
68713;PMS7003;55690;51.566;19.198;2023-08-24T22:16:42;22;21;17
68713;PMS7003;55690;51.566;19.198;2023-08-24T22:20:48;29;27;18
68713;PMS7003;55690;51.566;19.198;2023-08-24T22:24:54;27;25;19
68713;PMS7003;55690;51.566;19.198;2023-08-24T22:29:00;18;18;14
68713;PMS7003;55690;51.566;19.198;2023-08-24T22:33:06;30;27;20
68713;PMS7003;55690;51.566;19.198;2023-08-24T22:37:13;24;21;16
68713;PMS7003;55690;51.566;19.198;2023-08-24T22:41:19;29;23;20
68713;PMS7003;55690;51.566;19.198;2023-08-24T22:49:39;22;19;15
68713;PMS7003;55690;51.566;19.198;2023-08-24T22:53:41;21;20;16
68713;PMS7003;55690;51.566;19.198;2023-08-24T22:57:43;20;15;13
68713;PMS7003;55690;51.566;19.198;2023-08-24T23:01:50;18;18;14
68713;PMS7003;55690;51.566;19.198;2023-08-24T23:05:56;24;21;16
68713;PMS7003;55690;51.566;19.198;2023-08-24T23:10:02;22;18;16
68713;PMS7003;55690;51.566;19.198;2023-08-24T23:14:08;29;19;15
68713;PMS7003;55690;51.566;19.198;2023-08-24T23:18:14;23;23;18
68713;PMS7003;55690;51.566;19.198;2023-08-24T23:22:20;25;18;14
68713;PMS7003;55690;51.566;19.198;2023-08-24T23:26:27;23;17;12
68713;PMS7003;55690;51.566;19.198;2023-08-24T23:30:33;24;23;17
68713;PMS7003;55690;51.566;19.198;2023-08-24T23:34:39;17;15;12
68713;PMS7003;55690;51.566;19.198;2023-08-24T23:38:45;20;18;15
68713;PMS7003;55690;51.566;19.198;2023-08-24T23:42:51;20;16;14
68713;PMS7003;55690;51.566;19.198;2023-08-24T23:46:57;20;20;15
68713;PMS7003;55690;51.566;19.198;2023-08-24T23:51:04;25;19;17
68713;PMS7003;55690;51.566;19.198;2023-08-24T23:55:10;19;18;15
68713;PMS7003;55690;51.566;19.198;2023-08-24T23:59:16;22;21;18
